sensor_id;sensor_type;location;lat;lon;timestamp;pressure;altitude;pressure_sealevel;temperature;humidity
14383;BME280;7275;50.328;8.720;2024-01-16T00:01:18;98965.84;;;7.19;45.59
14383;BME280;7275;50.328;8.720;2024-01-16T00:03:46;98965.22;;;7.13;45.66
14383;BME280;7275;50.328;8.720;2024-01-16T00:06:13;98978.56;;;7.07;45.90
14383;BME280;7275;50.328;8.720;2024-01-16T00:08:41;98973.34;;;7.05;45.72
14383;BME280;7275;50.328;8.720;2024-01-16T00:11:09;98984.84;;;7.03;45.87
14383;BME280;7275;50.328;8.720;2024-01-16T00:13:36;98989.31;;;6.99;45.82
14383;BME280;7275;50.328;8.720;2024-01-16T00:16:05;98986.69;;;6.99;46.00
14383;BME280;7275;50.328;8.720;2024-01-16T00:18:34;98991.94;;;6.99;46.02
14383;BME280;7275;50.328;8.720;2024-01-16T00:21:02;98992.88;;;6.98;45.93
14383;BME280;7275;50.328;8.720;2024-01-16T00:23:29;98990.25;;;6.98;45.90
14383;BME280;7275;50.328;8.720;2024-01-16T00:25:59;98993.72;;;6.99;45.90
14383;BME280;7275;50.328;8.720;2024-01-16T00:28:27;98994.69;;;6.96;45.97
14383;BME280;7275;50.328;8.720;2024-01-16T00:30:54;99005.34;;;6.92;46.06
14383;BME280;7275;50.328;8.720;2024-01-16T00:33:23;99008.78;;;6.94;45.89
14383;BME280;7275;50.328;8.720;2024-01-16T00:35:52;99000.84;;;6.95;45.80
14383;BME280;7275;50.328;8.720;2024-01-16T00:38:20;99008.88;;;6.91;46.05
14383;BME280;7275;50.328;8.720;2024-01-16T00:40:48;99004.53;;;6.90;46.08
14383;BME280;7275;50.328;8.720;2024-01-16T00:43:16;99003.59;;;6.92;46.17
14383;BME280;7275;50.328;8.720;2024-01-16T00:45:43;99014.72;;;6.99;45.83
14383;BME280;7275;50.328;8.720;2024-01-16T00:48:12;99013.84;;;7.00;46.26
14383;BME280;7275;50.328;8.720;2024-01-16T00:50:42;99007.41;;;7.08;45.80
14383;BME280;7275;50.328;8.720;2024-01-16T00:53:09;99011.63;;;7.12;45.95
14383;BME280;7275;50.328;8.720;2024-01-16T00:55:37;99008.88;;;7.15;46.10
14383;BME280;7275;50.328;8.720;2024-01-16T00:58:05;99010.47;;;7.21;45.95
14383;BME280;7275;50.328;8.720;2024-01-16T01:00:32;99006.88;;;7.23;46.03
14383;BME280;7275;50.328;8.720;2024-01-16T01:03:01;99014.56;;;7.30;45.72
14383;BME280;7275;50.328;8.720;2024-01-16T01:05:30;99011.06;;;7.29;45.93
14383;BME280;7275;50.328;8.720;2024-01-16T01:07:59;99024.03;;;7.34;45.74
14383;BME280;7275;50.328;8.720;2024-01-16T01:10:26;99016.97;;;7.36;45.95
14383;BME280;7275;50.328;8.720;2024-01-16T01:12:54;99016.16;;;7.34;46.04
14383;BME280;7275;50.328;8.720;2024-01-16T01:15:22;99017.84;;;7.35;45.97
14383;BME280;7275;50.328;8.720;2024-01-16T01:17:50;99018.72;;;7.35;45.98
14383;BME280;7275;50.328;8.720;2024-01-16T01:20:18;99022.94;;;7.39;45.77
14383;BME280;7275;50.328;8.720;2024-01-16T01:22:46;99027.34;;;7.39;45.86
14383;BME280;7275;50.328;8.720;2024-01-16T01:25:16;99016.91;;;7.37;45.78
14383;BME280;7275;50.328;8.720;2024-01-16T01:27:43;99021.25;;;7.38;45.84
14383;BME280;7275;50.328;8.720;2024-01-16T01:30:11;99029.16;;;7.37;45.83
14383;BME280;7275;50.328;8.720;2024-01-16T01:32:39;99026.66;;;7.34;45.71
14383;BME280;7275;50.328;8.720;2024-01-16T01:35:07;99032.16;;;7.28;45.80
14383;BME280;7275;50.328;8.720;2024-01-16T01:37:35;99027.13;;;7.20;45.94
14383;BME280;7275;50.328;8.720;2024-01-16T01:40:02;99041.09;;;7.22;45.82
14383;BME280;7275;50.328;8.720;2024-01-16T01:42:31;99043.81;;;7.19;45.94
14383;BME280;7275;50.328;8.720;2024-01-16T01:44:59;99036.09;;;7.14;46.08
14383;BME280;7275;50.328;8.720;2024-01-16T01:47:27;99049.22;;;7.14;46.20
14383;BME280;7275;50.328;8.720;2024-01-16T01:49:54;99046.66;;;7.13;46.07
14383;BME280;7275;50.328;8.720;2024-01-16T01:52:22;99057.13;;;7.14;46.06
14383;BME280;7275;50.328;8.720;2024-01-16T01:54:51;99054.50;;;7.14;46.24
14383;BME280;7275;50.328;8.720;2024-01-16T01:57:19;99053.56;;;7.15;46.04
14383;BME280;7275;50.328;8.720;2024-01-16T01:59:48;99055.56;;;7.09;46.04
14383;BME280;7275;50.328;8.720;2024-01-16T02:02:16;99058.19;;;7.09;46.19
14383;BME280;7275;50.328;8.720;2024-01-16T02:04:44;99052.94;;;7.09;46.06
14383;BME280;7275;50.328;8.720;2024-01-16T02:07:13;99043.25;;;7.11;46.00
14383;BME280;7275;50.328;8.720;2024-01-16T02:09:42;99048.53;;;7.09;46.17
14383;BME280;7275;50.328;8.720;2024-01-16T02:12:10;99052.97;;;7.07;46.16
14383;BME280;7275;50.328;8.720;2024-01-16T02:14:38;99060.84;;;7.07;45.99
14383;BME280;7275;50.328;8.720;2024-01-16T02:17:07;99048.78;;;7.02;46.14
14383;BME280;7275;50.328;8.720;2024-01-16T02:19:35;99069.97;;;6.97;46.36
14383;BME280;7275;50.328;8.720;2024-01-16T02:22:04;99075.06;;;7.02;46.15
14383;BME280;7275;50.328;8.720;2024-01-16T02:24:36;99071.56;;;7.01;46.38
14383;BME280;7275;50.328;8.720;2024-01-16T02:27:04;99082.88;;;7.03;46.35
14383;BME280;7275;50.328;8.720;2024-01-16T02:29:31;99073.19;;;7.05;46.46
14383;BME280;7275;50.328;8.720;2024-01-16T02:31:59;99074.06;;;7.06;46.39
14383;BME280;7275;50.328;8.720;2024-01-16T02:34:27;99071.28;;;7.10;46.41
14383;BME280;7275;50.328;8.720;2024-01-16T02:36:54;99065.16;;;7.10;46.29
14383;BME280;7275;50.328;8.720;2024-01-16T02:39:22;99062.47;;;7.11;46.18
14383;BME280;7275;50.328;8.720;2024-01-16T02:41:50;99072.16;;;7.11;46.14
14383;BME280;7275;50.328;8.720;2024-01-16T02:44:18;99074.06;;;7.06;46.24
14383;BME280;7275;50.328;8.720;2024-01-16T02:46:46;99084.47;;;7.09;46.28
14383;BME280;7275;50.328;8.720;2024-01-16T02:49:13;99075.78;;;7.07;46.06
14383;BME280;7275;50.328;8.720;2024-01-16T02:51:41;99089.72;;;7.09;46.12
14383;BME280;7275;50.328;8.720;2024-01-16T02:54:09;99086.97;;;7.12;46.25
14383;BME280;7275;50.328;8.720;2024-01-16T02:56:36;99100.03;;;7.15;46.30
14383;BME280;7275;50.328;8.720;2024-01-16T02:59:05;99104.28;;;7.19;46.43
14383;BME280;7275;50.328;8.720;2024-01-16T03:01:33;99098.81;;;7.25;46.58
14383;BME280;7275;50.328;8.720;2024-01-16T03:04:01;99101.22;;;7.31;46.36
14383;BME280;7275;50.328;8.720;2024-01-16T03:06:29;99097.66;;;7.34;46.54
14383;BME280;7275;50.328;8.720;2024-01-16T03:08:57;99099.09;;;7.42;46.53
14383;BME280;7275;50.328;8.720;2024-01-16T03:11:24;99093.72;;;7.45;46.19
14383;BME280;7275;50.328;8.720;2024-01-16T03:13:52;99100.78;;;7.45;46.36
14383;BME280;7275;50.328;8.720;2024-01-16T03:16:21;99100.88;;;7.42;46.42
14383;BME280;7275;50.328;8.720;2024-01-16T03:18:48;99093.84;;;7.42;46.33
14383;BME280;7275;50.328;8.720;2024-01-16T03:21:16;99104.25;;;7.45;46.32
14383;BME280;7275;50.328;8.720;2024-01-16T03:23:44;99103.22;;;7.49;46.17
14383;BME280;7275;50.328;8.720;2024-01-16T03:26:12;99116.38;;;7.49;46.22
14383;BME280;7275;50.328;8.720;2024-01-16T03:28:41;99104.16;;;7.48;46.24
14383;BME280;7275;50.328;8.720;2024-01-16T03:31:08;99107.53;;;7.52;46.04
14383;BME280;7275;50.328;8.720;2024-01-16T03:33:37;99113.72;;;7.51;46.22
14383;BME280;7275;50.328;8.720;2024-01-16T03:36:09;99106.72;;;7.50;46.34
14383;BME280;7275;50.328;8.720;2024-01-16T03:38:39;99110.97;;;7.54;46.11
14383;BME280;7275;50.328;8.720;2024-01-16T03:41:06;99103.34;;;7.46;45.96
14383;BME280;7275;50.328;8.720;2024-01-16T03:43:34;99102.41;;;7.47;46.23
14383;BME280;7275;50.328;8.720;2024-01-16T03:46:02;99107.69;;;7.47;46.14
14383;BME280;7275;50.328;8.720;2024-01-16T03:48:29;99095.47;;;7.46;45.96
14383;BME280;7275;50.328;8.720;2024-01-16T03:50:58;99098.84;;;7.50;46.07
14383;BME280;7275;50.328;8.720;2024-01-16T03:53:26;99104.91;;;7.52;46.16
14383;BME280;7275;50.328;8.720;2024-01-16T03:55:53;99106.50;;;7.56;45.86
14383;BME280;7275;50.328;8.720;2024-01-16T03:58:21;99099.47;;;7.56;46.02
14383;BME280;7275;50.328;8.720;2024-01-16T04:00:49;99105.47;;;7.60;45.96
14383;BME280;7275;50.328;8.720;2024-01-16T04:03:19;99103.63;;;7.63;45.96
14383;BME280;7275;50.328;8.720;2024-01-16T04:05:47;99104.66;;;7.59;46.06
14383;BME280;7275;50.328;8.720;2024-01-16T04:08:16;99120.78;;;7.49;46.19
14383;BME280;7275;50.328;8.720;2024-01-16T04:10:44;99110.28;;;7.49;46.17
14383;BME280;7275;50.328;8.720;2024-01-16T04:13:12;99126.56;;;7.34;46.79
14383;BME280;7275;50.328;8.720;2024-01-16T04:15:39;99129.34;;;7.29;46.77
14383;BME280;7275;50.328;8.720;2024-01-16T04:18:07;99124.09;;;7.29;46.99
14383;BME280;7275;50.328;8.720;2024-01-16T04:20:35;99124.00;;;7.32;46.76
14383;BME280;7275;50.328;8.720;2024-01-16T04:23:03;99125.84;;;7.28;46.81
14383;BME280;7275;50.328;8.720;2024-01-16T04:25:32;99120.72;;;7.24;46.88
14383;BME280;7275;50.328;8.720;2024-01-16T04:28:00;99124.16;;;7.26;46.79
14383;BME280;7275;50.328;8.720;2024-01-16T04:30:29;99125.16;;;7.23;46.87
14383;BME280;7275;50.328;8.720;2024-01-16T04:32:56;99114.59;;;7.25;46.71
14383;BME280;7275;50.328;8.720;2024-01-16T04:35:24;99120.94;;;7.18;46.82
14383;BME280;7275;50.328;8.720;2024-01-16T04:37:52;99113.03;;;7.19;46.93
14383;BME280;7275;50.328;8.720;2024-01-16T04:40:19;99120.91;;;7.19;46.76
14383;BME280;7275;50.328;8.720;2024-01-16T04:42:49;99118.44;;;7.15;46.71
14383;BME280;7275;50.328;8.720;2024-01-16T04:45:17;99119.47;;;7.09;46.70
14383;BME280;7275;50.328;8.720;2024-01-16T04:47:44;99128.22;;;7.10;46.67
14383;BME280;7275;50.328;8.720;2024-01-16T04:50:12;99118.50;;;7.12;46.59
14383;BME280;7275;50.328;8.720;2024-01-16T04:52:39;99121.34;;;7.06;47.00
14383;BME280;7275;50.328;8.720;2024-01-16T04:55:07;99122.09;;;7.09;46.52
14383;BME280;7275;50.328;8.720;2024-01-16T04:57:35;99122.81;;;7.14;46.53
14383;BME280;7275;50.328;8.720;2024-01-16T05:00:05;99124.53;;;7.15;46.69
14383;BME280;7275;50.328;8.720;2024-01-16T05:02:33;99111.50;;;7.12;46.61
14383;BME280;7275;50.328;8.720;2024-01-16T05:05:01;99119.97;;;7.20;46.38
14383;BME280;7275;50.328;8.720;2024-01-16T05:07:29;99118.28;;;7.19;46.71
14383;BME280;7275;50.328;8.720;2024-01-16T05:09:57;99112.91;;;7.22;46.48
14383;BME280;7275;50.328;8.720;2024-01-16T05:12:24;99114.59;;;7.25;46.38
14383;BME280;7275;50.328;8.720;2024-01-16T05:14:52;99111.94;;;7.25;46.21
14383;BME280;7275;50.328;8.720;2024-01-16T05:17:21;99121.53;;;7.26;46.17
14383;BME280;7275;50.328;8.720;2024-01-16T05:19:48;99105.81;;;7.24;46.14
14383;BME280;7275;50.328;8.720;2024-01-16T05:22:16;99109.38;;;7.23;46.12
14383;BME280;7275;50.328;8.720;2024-01-16T05:24:43;99102.25;;;7.27;45.92
14383;BME280;7275;50.328;8.720;2024-01-16T05:27:11;99104.00;;;7.26;46.16
14383;BME280;7275;50.328;8.720;2024-01-16T05:29:40;99104.00;;;7.26;46.08
14383;BME280;7275;50.328;8.720;2024-01-16T05:32:10;99103.25;;;7.23;46.18
14383;BME280;7275;50.328;8.720;2024-01-16T05:34:39;99092.63;;;7.26;46.19
14383;BME280;7275;50.328;8.720;2024-01-16T05:37:07;99099.56;;;7.28;46.06
14383;BME280;7275;50.328;8.720;2024-01-16T05:39:34;99097.94;;;7.24;45.96
14383;BME280;7275;50.328;8.720;2024-01-16T05:42:03;99091.81;;;7.24;46.08
14383;BME280;7275;50.328;8.720;2024-01-16T05:44:31;99096.13;;;7.26;46.08
14383;BME280;7275;50.328;8.720;2024-01-16T05:46:59;99079.47;;;7.28;45.95
14383;BME280;7275;50.328;8.720;2024-01-16T05:49:26;99085.66;;;7.25;46.05
14383;BME280;7275;50.328;8.720;2024-01-16T05:51:55;99084.75;;;7.26;46.00
14383;BME280;7275;50.328;8.720;2024-01-16T05:54:23;99088.16;;;7.30;45.75
14383;BME280;7275;50.328;8.720;2024-01-16T05:56:50;99078.66;;;7.25;45.83
14383;BME280;7275;50.328;8.720;2024-01-16T05:59:18;99076.84;;;7.26;45.83
14383;BME280;7275;50.328;8.720;2024-01-16T06:01:46;99068.97;;;7.26;45.59
14383;BME280;7275;50.328;8.720;2024-01-16T06:04:13;99069.09;;;7.23;45.69
14383;BME280;7275;50.328;8.720;2024-01-16T06:06:41;99064.69;;;7.23;45.75
14383;BME280;7275;50.328;8.720;2024-01-16T06:09:13;99071.56;;;7.28;45.63
14383;BME280;7275;50.328;8.720;2024-01-16T06:11:42;99065.53;;;7.24;45.43
14383;BME280;7275;50.328;8.720;2024-01-16T06:14:09;99068.16;;;7.24;45.55
14383;BME280;7275;50.328;8.720;2024-01-16T06:16:38;99063.84;;;7.23;45.62
14383;BME280;7275;50.328;8.720;2024-01-16T06:19:06;99057.72;;;7.22;45.57
14383;BME280;7275;50.328;8.720;2024-01-16T06:21:34;99060.34;;;7.22;45.03
14383;BME280;7275;50.328;8.720;2024-01-16T06:24:02;99055.09;;;7.22;45.41
14383;BME280;7275;50.328;8.720;2024-01-16T06:26:31;99058.63;;;7.21;45.24
14383;BME280;7275;50.328;8.720;2024-01-16T06:28:58;99060.41;;;7.21;45.21
14383;BME280;7275;50.328;8.720;2024-01-16T06:31:26;99055.22;;;7.19;45.47
14383;BME280;7275;50.328;8.720;2024-01-16T06:33:54;99047.19;;;7.22;45.55
14383;BME280;7275;50.328;8.720;2024-01-16T06:36:22;99041.03;;;7.23;45.37
14383;BME280;7275;50.328;8.720;2024-01-16T06:38:50;99038.56;;;7.19;45.37
14383;BME280;7275;50.328;8.720;2024-01-16T06:41:17;99039.47;;;7.18;45.29
14383;BME280;7275;50.328;8.720;2024-01-16T06:43:46;99036.03;;;7.16;45.37
14383;BME280;7275;50.328;8.720;2024-01-16T06:46:14;99038.00;;;7.09;45.38
14383;BME280;7275;50.328;8.720;2024-01-16T06:48:42;99042.63;;;7.03;45.33
14383;BME280;7275;50.328;8.720;2024-01-16T06:51:09;99042.56;;;7.04;45.41
14383;BME280;7275;50.328;8.720;2024-01-16T06:53:40;99052.22;;;7.04;45.53
14383;BME280;7275;50.328;8.720;2024-01-16T06:56:07;99046.91;;;7.05;45.21
14383;BME280;7275;50.328;8.720;2024-01-16T06:58:35;99052.13;;;7.07;45.18
14383;BME280;7275;50.328;8.720;2024-01-16T07:01:04;99057.38;;;7.07;45.08
14383;BME280;7275;50.328;8.720;2024-01-16T07:03:32;99063.59;;;7.04;44.96
14383;BME280;7275;50.328;8.720;2024-01-16T07:06:00;99053.03;;;7.06;44.80
14383;BME280;7275;50.328;8.720;2024-01-16T07:08:27;99046.09;;;7.03;44.74
14383;BME280;7275;50.328;8.720;2024-01-16T07:10:55;99055.00;;;6.99;44.87
14383;BME280;7275;50.328;8.720;2024-01-16T07:13:23;99065.44;;;7.01;44.94
14383;BME280;7275;50.328;8.720;2024-01-16T07:15:50;99063.69;;;7.01;45.06
14383;BME280;7275;50.328;8.720;2024-01-16T07:18:19;99069.06;;;6.98;45.12
14383;BME280;7275;50.328;8.720;2024-01-16T07:20:47;99085.63;;;7.00;44.90
14383;BME280;7275;50.328;8.720;2024-01-16T07:23:14;99091.78;;;6.99;44.91
14383;BME280;7275;50.328;8.720;2024-01-16T07:25:42;99087.59;;;6.94;44.81
14383;BME280;7275;50.328;8.720;2024-01-16T07:28:10;99092.09;;;6.90;44.75
14383;BME280;7275;50.328;8.720;2024-01-16T07:30:38;99093.28;;;6.80;45.00
14383;BME280;7275;50.328;8.720;2024-01-16T07:33:06;99089.16;;;6.72;45.11
14383;BME280;7275;50.328;8.720;2024-01-16T07:35:35;99095.53;;;6.65;45.14
14383;BME280;7275;50.328;8.720;2024-01-16T07:38:03;99092.16;;;6.61;45.34
14383;BME280;7275;50.328;8.720;2024-01-16T07:40:31;99099.38;;;6.53;45.33
14383;BME280;7275;50.328;8.720;2024-01-16T07:42:58;99098.63;;;6.50;45.74
14383;BME280;7275;50.328;8.720;2024-01-16T07:45:26;99102.44;;;6.39;45.56
14383;BME280;7275;50.328;8.720;2024-01-16T07:47:53;99097.59;;;6.26;45.93
14383;BME280;7275;50.328;8.720;2024-01-16T07:50:21;99101.16;;;6.25;45.69
14383;BME280;7275;50.328;8.720;2024-01-16T07:52:50;99111.03;;;6.15;46.17
14383;BME280;7275;50.328;8.720;2024-01-16T07:55:18;99104.31;;;6.07;46.14
14383;BME280;7275;50.328;8.720;2024-01-16T07:57:50;99121.00;;;6.04;46.28
14383;BME280;7275;50.328;8.720;2024-01-16T08:00:18;99119.19;;;6.06;46.39
14383;BME280;7275;50.328;8.720;2024-01-16T08:02:46;99115.88;;;6.00;46.79
14383;BME280;7275;50.328;8.720;2024-01-16T08:05:14;99124.00;;;5.91;47.09
14383;BME280;7275;50.328;8.720;2024-01-16T08:07:42;99120.47;;;5.92;46.98
14383;BME280;7275;50.328;8.720;2024-01-16T08:10:14;99118.75;;;5.91;47.01
14383;BME280;7275;50.328;8.720;2024-01-16T08:12:45;99127.41;;;5.94;47.03
14383;BME280;7275;50.328;8.720;2024-01-16T08:15:12;99123.81;;;5.97;46.86
14383;BME280;7275;50.328;8.720;2024-01-16T08:17:40;99131.97;;;5.88;46.97
14383;BME280;7275;50.328;8.720;2024-01-16T08:20:08;99128.53;;;5.86;47.19
14383;BME280;7275;50.328;8.720;2024-01-16T08:22:37;99139.16;;;5.78;47.41
14383;BME280;7275;50.328;8.720;2024-01-16T08:25:05;99138.19;;;5.82;47.49
14383;BME280;7275;50.328;8.720;2024-01-16T08:27:34;99139.09;;;5.81;47.54
14383;BME280;7275;50.328;8.720;2024-01-16T08:30:04;99126.00;;;5.81;47.42
14383;BME280;7275;50.328;8.720;2024-01-16T08:32:33;99137.28;;;5.83;47.84
14383;BME280;7275;50.328;8.720;2024-01-16T08:35:01;99139.84;;;5.86;47.66
14383;BME280;7275;50.328;8.720;2024-01-16T08:37:29;99144.22;;;5.87;47.61
14383;BME280;7275;50.328;8.720;2024-01-16T08:39:56;99139.84;;;5.86;47.64
14383;BME280;7275;50.328;8.720;2024-01-16T08:42:24;99145.63;;;5.99;47.21
14383;BME280;7275;50.328;8.720;2024-01-16T08:44:52;99144.50;;;6.07;47.30
14383;BME280;7275;50.328;8.720;2024-01-16T08:47:20;99135.63;;;6.13;47.01
14383;BME280;7275;50.328;8.720;2024-01-16T08:49:48;99135.25;;;6.25;47.26
14383;BME280;7275;50.328;8.720;2024-01-16T08:52:16;99144.84;;;6.26;46.96
14383;BME280;7275;50.328;8.720;2024-01-16T08:54:43;99145.38;;;6.37;46.84
14383;BME280;7275;50.328;8.720;2024-01-16T08:57:11;99143.44;;;6.43;46.81
14383;BME280;7275;50.328;8.720;2024-01-16T08:59:43;99136.16;;;6.53;46.50
14383;BME280;7275;50.328;8.720;2024-01-16T09:02:12;99138.69;;;6.56;46.88
14383;BME280;7275;50.328;8.720;2024-01-16T09:04:40;99134.25;;;6.58;46.85
14383;BME280;7275;50.328;8.720;2024-01-16T09:07:08;99128.88;;;6.63;46.93
14383;BME280;7275;50.328;8.720;2024-01-16T09:09:36;99132.03;;;6.74;46.74
14383;BME280;7275;50.328;8.720;2024-01-16T09:12:04;99132.53;;;6.85;46.30
14383;BME280;7275;50.328;8.720;2024-01-16T09:14:32;99128.00;;;6.90;46.33
14383;BME280;7275;50.328;8.720;2024-01-16T09:16:59;99127.69;;;6.99;46.49
14383;BME280;7275;50.328;8.720;2024-01-16T09:19:28;99133.72;;;7.02;46.41
14383;BME280;7275;50.328;8.720;2024-01-16T09:21:56;99137.16;;;7.04;46.11
14383;BME280;7275;50.328;8.720;2024-01-16T09:24:24;99146.47;;;7.14;46.17
14383;BME280;7275;50.328;8.720;2024-01-16T09:26:51;99142.09;;;7.13;45.92
14383;BME280;7275;50.328;8.720;2024-01-16T09:29:19;99145.91;;;7.05;45.94
14383;BME280;7275;50.328;8.720;2024-01-16T09:31:48;99158.19;;;7.04;45.84
14383;BME280;7275;50.328;8.720;2024-01-16T09:34:15;99160.06;;;6.73;46.05
14383;BME280;7275;50.328;8.720;2024-01-16T09:36:45;99162.91;;;6.66;46.11
14383;BME280;7275;50.328;8.720;2024-01-16T09:39:13;99158.44;;;6.69;46.08
14383;BME280;7275;50.328;8.720;2024-01-16T09:41:45;99166.34;;;6.68;46.19
14383;BME280;7275;50.328;8.720;2024-01-16T09:44:13;99177.13;;;6.59;46.21
14383;BME280;7275;50.328;8.720;2024-01-16T09:46:44;99179.69;;;6.60;46.10
14383;BME280;7275;50.328;8.720;2024-01-16T09:49:14;99193.59;;;6.64;46.24
14383;BME280;7275;50.328;8.720;2024-01-16T09:51:42;99187.59;;;6.60;46.44
14383;BME280;7275;50.328;8.720;2024-01-16T09:54:11;99189.03;;;6.70;46.05
14383;BME280;7275;50.328;8.720;2024-01-16T09:56:42;99194.19;;;6.73;46.12
14383;BME280;7275;50.328;8.720;2024-01-16T09:59:12;99192.50;;;6.71;46.27
14383;BME280;7275;50.328;8.720;2024-01-16T10:01:42;99186.88;;;6.83;46.35
14383;BME280;7275;50.328;8.720;2024-01-16T10:04:10;99198.81;;;6.93;46.22
14383;BME280;7275;50.328;8.720;2024-01-16T10:06:38;99191.72;;;6.96;45.93
14383;BME280;7275;50.328;8.720;2024-01-16T10:09:06;99190.41;;;7.09;45.77
14383;BME280;7275;50.328;8.720;2024-01-16T10:11:36;99186.75;;;7.15;45.70
14383;BME280;7275;50.328;8.720;2024-01-16T10:14:04;99179.53;;;7.21;45.62
14383;BME280;7275;50.328;8.720;2024-01-16T10:16:56;99176.50;;;7.34;45.15
14383;BME280;7275;50.328;8.720;2024-01-16T10:19:27;99173.75;;;7.37;45.13
14383;BME280;7275;50.328;8.720;2024-01-16T10:22:11;99184.41;;;7.34;44.99
14383;BME280;7275;50.328;8.720;2024-01-16T10:24:40;99171.19;;;7.35;45.42
14383;BME280;7275;50.328;8.720;2024-01-16T10:27:09;99173.41;;;7.47;45.15
14383;BME280;7275;50.328;8.720;2024-01-16T10:29:37;99170.78;;;7.47;45.17
14383;BME280;7275;50.328;8.720;2024-01-16T10:32:27;99165.38;;;7.52;45.18
14383;BME280;7275;50.328;8.720;2024-01-16T10:35:03;99171.22;;;7.60;44.87
14383;BME280;7275;50.328;8.720;2024-01-16T10:37:40;99169.47;;;7.60;45.10
14383;BME280;7275;50.328;8.720;2024-01-16T10:40:09;99164.06;;;7.65;45.06
14383;BME280;7275;50.328;8.720;2024-01-16T10:42:38;99164.81;;;7.68;45.23
14383;BME280;7275;50.328;8.720;2024-01-16T10:45:06;99151.50;;;7.73;45.21
14383;BME280;7275;50.328;8.720;2024-01-16T10:47:34;99153.91;;;7.79;45.29
14383;BME280;7275;50.328;8.720;2024-01-16T10:50:05;99135.22;;;7.86;45.08
14383;BME280;7275;50.328;8.720;2024-01-16T10:52:39;99132.97;;;8.00;45.30
14383;BME280;7275;50.328;8.720;2024-01-16T10:55:12;99142.88;;;8.17;44.97
14383;BME280;7275;50.328;8.720;2024-01-16T10:57:44;99134.41;;;8.34;44.60
14383;BME280;7275;50.328;8.720;2024-01-16T11:00:13;99142.28;;;8.34;44.38
14383;BME280;7275;50.328;8.720;2024-01-16T11:02:59;99142.00;;;8.41;43.88
14383;BME280;7275;50.328;8.720;2024-01-16T11:05:31;99137.50;;;8.45;44.23
14383;BME280;7275;50.328;8.720;2024-01-16T11:08:00;99132.66;;;8.56;43.84
14383;BME280;7275;50.328;8.720;2024-01-16T11:10:30;99133.81;;;8.49;43.58
14383;BME280;7275;50.328;8.720;2024-01-16T11:13:01;99143.19;;;8.56;43.26
14383;BME280;7275;50.328;8.720;2024-01-16T11:15:31;99131.34;;;8.67;43.85
14383;BME280;7275;50.328;8.720;2024-01-16T11:17:59;99127.13;;;8.63;43.34
14383;BME280;7275;50.328;8.720;2024-01-16T11:20:28;99117.94;;;8.73;43.08
14383;BME280;7275;50.328;8.720;2024-01-16T11:23:16;99110.75;;;8.77;43.06
14383;BME280;7275;50.328;8.720;2024-01-16T11:25:44;99117.34;;;8.89;43.23
14383;BME280;7275;50.328;8.720;2024-01-16T11:28:13;99101.53;;;8.89;43.18
14383;BME280;7275;50.328;8.720;2024-01-16T11:30:42;99099.09;;;9.04;42.62
14383;BME280;7275;50.328;8.720;2024-01-16T11:33:43;99098.06;;;9.08;42.43
14383;BME280;7275;50.328;8.720;2024-01-16T11:36:43;99096.91;;;9.15;42.67
14383;BME280;7275;50.328;8.720;2024-01-16T11:39:17;99088.19;;;9.13;42.91
14383;BME280;7275;50.328;8.720;2024-01-16T11:41:49;99081.13;;;9.14;41.99
14383;BME280;7275;50.328;8.720;2024-01-16T11:44:41;99085.59;;;9.12;42.17
14383;BME280;7275;50.328;8.720;2024-01-16T11:47:09;99073.88;;;8.99;42.18
14383;BME280;7275;50.328;8.720;2024-01-16T11:49:42;99069.91;;;8.89;42.32
14383;BME280;7275;50.328;8.720;2024-01-16T11:52:10;99065.19;;;8.95;42.36
14383;BME280;7275;50.328;8.720;2024-01-16T11:54:39;99050.41;;;8.93;42.34
14383;BME280;7275;50.328;8.720;2024-01-16T11:57:31;99064.28;;;8.96;42.28
14383;BME280;7275;50.328;8.720;2024-01-16T12:00:05;99062.72;;;8.92;42.80
14383;BME280;7275;50.328;8.720;2024-01-16T12:02:49;99059.03;;;8.96;42.25
14383;BME280;7275;50.328;8.720;2024-01-16T12:05:17;99058.25;;;9.14;42.04
14383;BME280;7275;50.328;8.720;2024-01-16T12:07:48;99051.75;;;9.23;42.29
14383;BME280;7275;50.328;8.720;2024-01-16T12:10:17;99049.53;;;9.34;42.13
14383;BME280;7275;50.328;8.720;2024-01-16T12:12:46;99042.91;;;9.44;41.93
14383;BME280;7275;50.328;8.720;2024-01-16T12:15:16;99035.06;;;9.62;41.67
14383;BME280;7275;50.328;8.720;2024-01-16T12:17:55;99032.59;;;9.78;41.27
14383;BME280;7275;50.328;8.720;2024-01-16T12:20:24;99033.81;;;9.90;40.83
14383;BME280;7275;50.328;8.720;2024-01-16T12:22:53;99028.34;;;9.94;40.80
14383;BME280;7275;50.328;8.720;2024-01-16T12:25:21;99026.88;;;10.07;41.12
14383;BME280;7275;50.328;8.720;2024-01-16T12:27:59;99019.53;;;10.14;40.47
14383;BME280;7275;50.328;8.720;2024-01-16T12:30:29;99028.03;;;10.20;39.55
14383;BME280;7275;50.328;8.720;2024-01-16T12:33:05;99027.19;;;10.20;39.35
14383;BME280;7275;50.328;8.720;2024-01-16T12:35:38;99026.94;;;10.24;40.07
14383;BME280;7275;50.328;8.720;2024-01-16T12:38:07;99026.22;;;10.39;40.17
14383;BME280;7275;50.328;8.720;2024-01-16T12:40:36;99022.56;;;10.61;39.90
14383;BME280;7275;50.328;8.720;2024-01-16T12:43:06;99015.72;;;10.92;39.65
14383;BME280;7275;50.328;8.720;2024-01-16T12:45:37;99009.50;;;11.10;39.68
14383;BME280;7275;50.328;8.720;2024-01-16T12:48:05;99010.34;;;11.11;39.14
14383;BME280;7275;50.328;8.720;2024-01-16T12:50:32;99014.94;;;11.24;38.85
14383;BME280;7275;50.328;8.720;2024-01-16T12:53:02;98995.31;;;11.28;38.98
14383;BME280;7275;50.328;8.720;2024-01-16T12:55:34;99000.38;;;11.33;38.36
14383;BME280;7275;50.328;8.720;2024-01-16T12:58:15;98989.88;;;11.49;38.73
14383;BME280;7275;50.328;8.720;2024-01-16T13:00:44;98985.63;;;11.79;38.22
14383;BME280;7275;50.328;8.720;2024-01-16T13:03:15;98980.88;;;12.63;38.67
14383;BME280;7275;50.328;8.720;2024-01-16T13:05:45;98972.66;;;13.57;37.21
14383;BME280;7275;50.328;8.720;2024-01-16T13:08:19;98963.09;;;14.52;35.88
14383;BME280;7275;50.328;8.720;2024-01-16T13:11:02;98957.28;;;14.98;34.93
14383;BME280;7275;50.328;8.720;2024-01-16T13:13:30;98955.75;;;15.21;34.25
14383;BME280;7275;50.328;8.720;2024-01-16T13:16:01;98958.41;;;15.34;32.38
14383;BME280;7275;50.328;8.720;2024-01-16T13:18:29;98961.38;;;15.56;32.81
14383;BME280;7275;50.328;8.720;2024-01-16T13:20:58;98949.94;;;16.04;31.92
14383;BME280;7275;50.328;8.720;2024-01-16T13:23:27;98948.50;;;16.47;31.19
14383;BME280;7275;50.328;8.720;2024-01-16T13:25:55;98934.41;;;17.16;31.98
14383;BME280;7275;50.328;8.720;2024-01-16T13:28:23;98939.19;;;17.81;30.95
14383;BME280;7275;50.328;8.720;2024-01-16T13:30:52;98929.91;;;18.29;29.51